Jrs Merkur — V2FD8 — position and weather

sailwx.info

Track history (hours):
 
Tides and Currents Weather Stations Pressure Air Temp Water Temp Dewpoint Dewpoint Depression Visibility Wind Speed Wind Dir Waves Ship Positions

Jrs Merkur

Last reported at 2015-Apr-18 16:33 UTC. Time now 2015-Apr-18 16:46 UTC.
Position N 40°25' E 029°05'.

Length 107 m; draft 8.3 m.

Type: Cargo ship. MMSI: 305644000.

Date/timePositionNaut miles runAvg speedWind from/ knotsBaromVisibWave heightAir tempDewpointWater temp
2015-Apr-18 16:33N 40°25' E 029°05'0 0.0
2015-Apr-18 15:15N 40°25' E 029°05'0 0.0
2015-Apr-18 14:09N 40°25' E 029°05'0 0.0
2015-Apr-16 23:33N 40°25' E 029°05'  
2015-Apr-12 06:27N 36°25' E 015°07'3010.2
2015-Apr-12 03:29N 36°27' E 014°30'1410.0
2015-Apr-12 02:05N 36°31' E 014°13'610.1
2015-Apr-12 01:27N 36°33' E 014°06'287 9.5
2015-Apr-10 19:10N 37°14' E 008°10'44 9.3
2015-Apr-10 14:26N 37°14' E 007°15'237 9.4
2015-Apr-09 13:17N 36°52' E 002°19'7 8.3
2015-Apr-09 12:28N 36°51' E 002°11'8 8.2
2015-Apr-09 11:28N 36°50' E 002°01'8 8.3
2015-Apr-09 10:33N 36°48' E 001°51'49 9.4
2015-Apr-09 05:23N 36°37' E 000°52'7 9.0
2015-Apr-09 04:33N 36°34' E 000°44'  
Track history (hours):
 
Tides and Currents Weather Stations Pressure Air Temp Water Temp Dewpoint Dewpoint Depression Visibility Wind Speed Wind Dir Waves Ship Positions

Jrs Merkur

Last reported at 2015-Apr-18 16:33 UTC. Time now 2015-Apr-18 16:46 UTC.
Position N 40°25' E 029°05'.

Length 107 m; draft 8.3 m.

Type: Cargo ship. MMSI: 305644000.

Date/timePositionNaut miles runAvg speedWind from/ knotsBaromVisibWave heightAir tempDewpointWater temp
2015-Apr-18 16:33N 40°25' E 029°05'0 0.0
2015-Apr-18 15:15N 40°25' E 029°05'0 0.0
2015-Apr-18 14:09N 40°25' E 029°05'0 0.0
2015-Apr-16 23:33N 40°25' E 029°05'  
2015-Apr-12 06:27N 36°25' E 015°07'3010.2
2015-Apr-12 03:29N 36°27' E 014°30'1410.0
2015-Apr-12 02:05N 36°31' E 014°13'610.1
2015-Apr-12 01:27N 36°33' E 014°06'287 9.5
2015-Apr-10 19:10N 37°14' E 008°10'44 9.3
2015-Apr-10 14:26N 37°14' E 007°15'237 9.4
2015-Apr-09 13:17N 36°52' E 002°19'7 8.3
2015-Apr-09 12:28N 36°51' E 002°11'8 8.2
2015-Apr-09 11:28N 36°50' E 002°01'8 8.3
2015-Apr-09 10:33N 36°48' E 001°51'49 9.4
2015-Apr-09 05:23N 36°37' E 000°52'7 9.0
2015-Apr-09 04:33N 36°34' E 000°44'  

Dump ship's entire track history